sensor_id;sensor_type;location;lat;lon;timestamp;P1;durP1;ratioP1;P2;durP2;ratioP2
60241;SDS011;46103;52.076;113.488;2023-08-01T00:00:09;15.52;;;11.90;;
60241;SDS011;46103;52.076;113.488;2023-08-01T00:03:13;19.48;;;11.48;;
60241;SDS011;46103;52.076;113.488;2023-08-01T00:06:16;13.68;;;12.27;;
60241;SDS011;46103;52.076;113.488;2023-08-01T00:09:20;16.50;;;11.90;;
60241;SDS011;46103;52.076;113.488;2023-08-01T00:12:23;17.63;;;13.30;;
60241;SDS011;46103;52.076;113.488;2023-08-01T00:15:27;16.70;;;12.93;;
60241;SDS011;46103;52.076;113.488;2023-08-01T00:18:31;15.80;;;12.93;;
60241;SDS011;46103;52.076;113.488;2023-08-01T00:21:35;16.40;;;13.18;;
60241;SDS011;46103;52.076;113.488;2023-08-01T00:24:38;16.40;;;13.15;;
60241;SDS011;46103;52.076;113.488;2023-08-01T00:27:42;19.60;;;14.18;;
60241;SDS011;46103;52.076;113.488;2023-08-01T00:30:45;20.40;;;14.25;;
60241;SDS011;46103;52.076;113.488;2023-08-01T00:33:48;17.95;;;13.88;;
60241;SDS011;46103;52.076;113.488;2023-08-01T00:36:52;19.92;;;14.65;;
60241;SDS011;46103;52.076;113.488;2023-08-01T00:39:56;17.77;;;14.77;;
60241;SDS011;46103;52.076;113.488;2023-08-01T00:42:59;17.60;;;14.55;;
60241;SDS011;46103;52.076;113.488;2023-08-01T00:46:03;22.80;;;14.00;;
60241;SDS011;46103;52.076;113.488;2023-08-01T00:49:08;17.75;;;14.50;;
60241;SDS011;46103;52.076;113.488;2023-08-01T00:52:11;19.52;;;16.20;;
60241;SDS011;46103;52.076;113.488;2023-08-01T00:55:14;21.85;;;16.00;;
60241;SDS011;46103;52.076;113.488;2023-08-01T00:58:19;20.48;;;16.40;;
60241;SDS011;46103;52.076;113.488;2023-08-01T01:01:22;21.85;;;17.15;;
60241;SDS011;46103;52.076;113.488;2023-08-01T01:04:26;20.20;;;16.88;;
60241;SDS011;46103;52.076;113.488;2023-08-01T01:07:31;19.63;;;16.67;;
60241;SDS011;46103;52.076;113.488;2023-08-01T01:10:37;20.88;;;15.80;;
60241;SDS011;46103;52.076;113.488;2023-08-01T01:13:40;23.27;;;16.88;;
60241;SDS011;46103;52.076;113.488;2023-08-01T01:16:45;19.05;;;15.52;;
60241;SDS011;46103;52.076;113.488;2023-08-01T01:19:48;22.02;;;17.40;;
60241;SDS011;46103;52.076;113.488;2023-08-01T01:22:52;20.00;;;16.63;;
60241;SDS011;46103;52.076;113.488;2023-08-01T01:25:57;21.13;;;16.10;;
60241;SDS011;46103;52.076;113.488;2023-08-01T01:29:02;19.58;;;16.90;;
60241;SDS011;46103;52.076;113.488;2023-08-01T01:32:06;19.35;;;16.55;;
60241;SDS011;46103;52.076;113.488;2023-08-01T01:35:12;18.35;;;15.45;;
60241;SDS011;46103;52.076;113.488;2023-08-01T01:38:15;18.35;;;15.43;;
60241;SDS011;46103;52.076;113.488;2023-08-01T01:41:19;19.00;;;16.02;;
60241;SDS011;46103;52.076;113.488;2023-08-01T01:44:23;21.90;;;15.77;;
60241;SDS011;46103;52.076;113.488;2023-08-01T01:47:26;21.00;;;16.77;;
60241;SDS011;46103;52.076;113.488;2023-08-01T01:50:29;21.48;;;15.85;;
60241;SDS011;46103;52.076;113.488;2023-08-01T01:53:33;20.05;;;15.70;;
60241;SDS011;46103;52.076;113.488;2023-08-01T01:56:36;21.42;;;15.88;;
60241;SDS011;46103;52.076;113.488;2023-08-01T01:59:40;20.13;;;16.42;;
60241;SDS011;46103;52.076;113.488;2023-08-01T02:02:45;18.70;;;15.73;;
60241;SDS011;46103;52.076;113.488;2023-08-01T02:05:49;19.83;;;16.90;;
60241;SDS011;46103;52.076;113.488;2023-08-01T02:08:54;18.35;;;15.30;;
60241;SDS011;46103;52.076;113.488;2023-08-01T02:12:01;18.75;;;16.45;;
60241;SDS011;46103;52.076;113.488;2023-08-01T02:15:08;20.30;;;16.42;;
60241;SDS011;46103;52.076;113.488;2023-08-01T02:18:13;20.40;;;16.08;;
60241;SDS011;46103;52.076;113.488;2023-08-01T02:21:17;18.50;;;16.17;;
60241;SDS011;46103;52.076;113.488;2023-08-01T02:24:20;19.45;;;15.32;;
60241;SDS011;46103;52.076;113.488;2023-08-01T02:27:24;17.13;;;15.02;;
60241;SDS011;46103;52.076;113.488;2023-08-01T02:30:28;20.40;;;15.18;;
60241;SDS011;46103;52.076;113.488;2023-08-01T02:33:32;17.40;;;15.55;;
60241;SDS011;46103;52.076;113.488;2023-08-01T02:36:37;16.08;;;14.23;;
60241;SDS011;46103;52.076;113.488;2023-08-01T02:39:46;17.30;;;15.00;;
60241;SDS011;46103;52.076;113.488;2023-08-01T02:42:50;23.98;;;21.52;;
60241;SDS011;46103;52.076;113.488;2023-08-01T02:45:55;15.95;;;13.70;;
60241;SDS011;46103;52.076;113.488;2023-08-01T02:48:59;15.07;;;13.63;;
60241;SDS011;46103;52.076;113.488;2023-08-01T02:52:03;16.95;;;13.52;;
60241;SDS011;46103;52.076;113.488;2023-08-01T02:55:09;13.80;;;12.25;;
60241;SDS011;46103;52.076;113.488;2023-08-01T02:58:12;15.02;;;13.43;;
60241;SDS011;46103;52.076;113.488;2023-08-01T03:01:15;15.25;;;13.65;;
60241;SDS011;46103;52.076;113.488;2023-08-01T03:04:19;14.38;;;12.88;;
60241;SDS011;46103;52.076;113.488;2023-08-01T03:07:33;15.68;;;12.98;;
60241;SDS011;46103;52.076;113.488;2023-08-01T03:10:39;13.93;;;12.10;;
60241;SDS011;46103;52.076;113.488;2023-08-01T03:13:44;13.90;;;12.48;;
60241;SDS011;46103;52.076;113.488;2023-08-01T03:16:49;16.67;;;12.90;;
60241;SDS011;46103;52.076;113.488;2023-08-01T03:19:55;16.80;;;13.77;;
60241;SDS011;46103;52.076;113.488;2023-08-01T03:22:59;18.33;;;15.02;;
60241;SDS011;46103;52.076;113.488;2023-08-01T03:26:06;16.75;;;14.30;;
60241;SDS011;46103;52.076;113.488;2023-08-01T03:29:11;16.92;;;14.57;;
60241;SDS011;46103;52.076;113.488;2023-08-01T03:32:15;17.10;;;15.40;;
60241;SDS011;46103;52.076;113.488;2023-08-01T03:35:21;19.70;;;15.77;;
60241;SDS011;46103;52.076;113.488;2023-08-01T03:38:27;19.20;;;16.60;;
60241;SDS011;46103;52.076;113.488;2023-08-01T03:41:32;18.50;;;16.65;;
60241;SDS011;46103;52.076;113.488;2023-08-01T03:44:38;19.08;;;17.02;;
60241;SDS011;46103;52.076;113.488;2023-08-01T03:47:46;20.23;;;17.27;;
60241;SDS011;46103;52.076;113.488;2023-08-01T03:50:49;19.63;;;16.70;;
60241;SDS011;46103;52.076;113.488;2023-08-01T03:53:53;16.67;;;14.98;;
60241;SDS011;46103;52.076;113.488;2023-08-01T03:57:13;17.33;;;15.60;;
60241;SDS011;46103;52.076;113.488;2023-08-01T04:00:17;18.58;;;14.18;;
60241;SDS011;46103;52.076;113.488;2023-08-01T04:03:22;16.60;;;14.73;;
60241;SDS011;46103;52.076;113.488;2023-08-01T04:06:26;14.10;;;12.77;;
60241;SDS011;46103;52.076;113.488;2023-08-01T04:09:29;18.80;;;14.57;;
60241;SDS011;46103;52.076;113.488;2023-08-01T04:12:33;17.23;;;13.98;;
60241;SDS011;46103;52.076;113.488;2023-08-01T04:15:38;15.05;;;12.43;;
60241;SDS011;46103;52.076;113.488;2023-08-01T04:18:42;15.07;;;12.50;;
60241;SDS011;46103;52.076;113.488;2023-08-01T04:21:45;14.90;;;12.27;;
60241;SDS011;46103;52.076;113.488;2023-08-01T04:24:49;12.40;;;10.63;;
60241;SDS011;46103;52.076;113.488;2023-08-01T04:27:53;11.82;;;10.52;;
60241;SDS011;46103;52.076;113.488;2023-08-01T04:30:57;11.32;;;9.75;;
60241;SDS011;46103;52.076;113.488;2023-08-01T04:34:02;12.65;;;10.75;;
60241;SDS011;46103;52.076;113.488;2023-08-01T04:37:05;12.13;;;10.07;;
60241;SDS011;46103;52.076;113.488;2023-08-01T04:40:09;9.90;;;8.90;;
60241;SDS011;46103;52.076;113.488;2023-08-01T04:43:15;10.40;;;9.02;;
60241;SDS011;46103;52.076;113.488;2023-08-01T04:46:21;12.60;;;11.13;;
60241;SDS011;46103;52.076;113.488;2023-08-01T04:49:26;12.93;;;11.30;;
60241;SDS011;46103;52.076;113.488;2023-08-01T04:52:33;12.80;;;10.38;;
60241;SDS011;46103;52.076;113.488;2023-08-01T04:55:38;10.05;;;9.15;;
60241;SDS011;46103;52.076;113.488;2023-08-01T04:58:45;12.60;;;10.77;;
60241;SDS011;46103;52.076;113.488;2023-08-01T05:01:48;11.93;;;10.82;;
60241;SDS011;46103;52.076;113.488;2023-08-01T05:04:52;11.25;;;9.88;;
60241;SDS011;46103;52.076;113.488;2023-08-01T05:07:56;9.73;;;8.75;;
60241;SDS011;46103;52.076;113.488;2023-08-01T05:11:00;10.93;;;9.80;;
60241;SDS011;46103;52.076;113.488;2023-08-01T05:14:04;10.77;;;9.77;;
60241;SDS011;46103;52.076;113.488;2023-08-01T05:17:09;12.38;;;11.07;;
60241;SDS011;46103;52.076;113.488;2023-08-01T05:20:15;11.25;;;9.93;;
60241;SDS011;46103;52.076;113.488;2023-08-01T05:23:21;12.15;;;10.73;;
60241;SDS011;46103;52.076;113.488;2023-08-01T05:26:26;9.73;;;8.82;;
60241;SDS011;46103;52.076;113.488;2023-08-01T05:29:34;9.15;;;8.25;;
60241;SDS011;46103;52.076;113.488;2023-08-01T05:32:40;10.00;;;9.02;;
60241;SDS011;46103;52.076;113.488;2023-08-01T05:35:48;10.57;;;9.40;;
60241;SDS011;46103;52.076;113.488;2023-08-01T05:38:54;9.63;;;8.68;;
60241;SDS011;46103;52.076;113.488;2023-08-01T05:42:01;10.57;;;9.40;;
60241;SDS011;46103;52.076;113.488;2023-08-01T05:45:06;11.65;;;10.45;;
60241;SDS011;46103;52.076;113.488;2023-08-01T05:48:12;11.00;;;9.93;;
60241;SDS011;46103;52.076;113.488;2023-08-01T05:51:22;10.98;;;9.98;;
60241;SDS011;46103;52.076;113.488;2023-08-01T05:54:27;10.55;;;9.75;;
60241;SDS011;46103;52.076;113.488;2023-08-01T05:57:34;10.68;;;9.77;;
60241;SDS011;46103;52.076;113.488;2023-08-01T06:00:41;10.85;;;9.75;;
60241;SDS011;46103;52.076;113.488;2023-08-01T06:06:54;10.32;;;9.23;;
60241;SDS011;46103;52.076;113.488;2023-08-01T06:10:00;11.48;;;10.02;;
60241;SDS011;46103;52.076;113.488;2023-08-01T06:13:06;11.50;;;10.50;;
60241;SDS011;46103;52.076;113.488;2023-08-01T06:16:12;10.63;;;9.65;;
60241;SDS011;46103;52.076;113.488;2023-08-01T06:19:19;10.70;;;9.52;;
60241;SDS011;46103;52.076;113.488;2023-08-01T06:22:26;11.43;;;10.43;;
60241;SDS011;46103;52.076;113.488;2023-08-01T06:25:32;12.75;;;10.43;;
60241;SDS011;46103;52.076;113.488;2023-08-01T06:28:37;10.25;;;9.45;;
60241;SDS011;46103;52.076;113.488;2023-08-01T06:31:42;10.38;;;9.38;;
60241;SDS011;46103;52.076;113.488;2023-08-01T06:34:45;12.48;;;11.30;;
60241;SDS011;46103;52.076;113.488;2023-08-01T06:37:49;11.93;;;10.90;;
60241;SDS011;46103;52.076;113.488;2023-08-01T06:40:53;11.63;;;10.63;;
60241;SDS011;46103;52.076;113.488;2023-08-01T06:43:56;11.80;;;10.75;;
60241;SDS011;46103;52.076;113.488;2023-08-01T06:47:00;13.10;;;11.73;;
60241;SDS011;46103;52.076;113.488;2023-08-01T06:50:04;11.80;;;10.60;;
60241;SDS011;46103;52.076;113.488;2023-08-01T06:53:09;13.05;;;11.85;;
60241;SDS011;46103;52.076;113.488;2023-08-01T06:56:13;10.70;;;9.73;;
60241;SDS011;46103;52.076;113.488;2023-08-01T06:59:16;11.75;;;10.60;;
60241;SDS011;46103;52.076;113.488;2023-08-01T07:02:20;11.70;;;10.50;;
60241;SDS011;46103;52.076;113.488;2023-08-01T07:05:24;11.65;;;10.45;;
60241;SDS011;46103;52.076;113.488;2023-08-01T07:08:28;11.73;;;10.55;;
60241;SDS011;46103;52.076;113.488;2023-08-01T07:11:31;11.65;;;10.70;;
60241;SDS011;46103;52.076;113.488;2023-08-01T07:14:35;12.15;;;10.38;;
60241;SDS011;46103;52.076;113.488;2023-08-01T07:17:40;11.75;;;10.65;;
60241;SDS011;46103;52.076;113.488;2023-08-01T07:20:48;11.90;;;10.90;;
60241;SDS011;46103;52.076;113.488;2023-08-01T07:24:03;11.60;;;10.52;;
60241;SDS011;46103;52.076;113.488;2023-08-01T07:27:09;11.20;;;10.20;;
60241;SDS011;46103;52.076;113.488;2023-08-01T07:30:16;11.75;;;10.75;;
60241;SDS011;46103;52.076;113.488;2023-08-01T07:33:22;10.68;;;9.68;;
60241;SDS011;46103;52.076;113.488;2023-08-01T07:36:28;11.45;;;10.30;;
60241;SDS011;46103;52.076;113.488;2023-08-01T07:39:36;11.30;;;10.25;;
60241;SDS011;46103;52.076;113.488;2023-08-01T07:45:55;11.98;;;10.98;;
60241;SDS011;46103;52.076;113.488;2023-08-01T07:49:03;12.05;;;10.80;;
60241;SDS011;46103;52.076;113.488;2023-08-01T07:52:09;11.75;;;10.55;;
60241;SDS011;46103;52.076;113.488;2023-08-01T07:55:15;14.82;;;12.30;;
60241;SDS011;46103;52.076;113.488;2023-08-01T07:58:21;14.38;;;12.23;;
60241;SDS011;46103;52.076;113.488;2023-08-01T08:01:26;13.15;;;11.75;;
60241;SDS011;46103;52.076;113.488;2023-08-01T08:04:31;12.10;;;10.88;;
60241;SDS011;46103;52.076;113.488;2023-08-01T08:07:39;12.70;;;11.40;;
60241;SDS011;46103;52.076;113.488;2023-08-01T08:10:43;12.23;;;10.93;;
60241;SDS011;46103;52.076;113.488;2023-08-01T08:13:47;13.10;;;11.43;;
60241;SDS011;46103;52.076;113.488;2023-08-01T08:16:52;17.42;;;12.07;;
60241;SDS011;46103;52.076;113.488;2023-08-01T08:19:57;15.88;;;11.55;;
60241;SDS011;46103;52.076;113.488;2023-08-01T08:23:02;17.25;;;12.57;;
60241;SDS011;46103;52.076;113.488;2023-08-01T08:26:07;17.00;;;11.75;;
60241;SDS011;46103;52.076;113.488;2023-08-01T08:29:11;15.18;;;12.32;;
60241;SDS011;46103;52.076;113.488;2023-08-01T08:32:16;16.08;;;11.15;;
60241;SDS011;46103;52.076;113.488;2023-08-01T08:35:22;15.20;;;11.45;;
60241;SDS011;46103;52.076;113.488;2023-08-01T08:38:27;17.40;;;11.55;;
60241;SDS011;46103;52.076;113.488;2023-08-01T08:41:38;16.23;;;12.00;;
60241;SDS011;46103;52.076;113.488;2023-08-01T08:44:49;13.05;;;11.55;;
60241;SDS011;46103;52.076;113.488;2023-08-01T08:47:56;13.30;;;11.32;;
60241;SDS011;46103;52.076;113.488;2023-08-01T08:51:04;13.95;;;10.55;;
60241;SDS011;46103;52.076;113.488;2023-08-01T08:54:11;14.55;;;11.43;;
60241;SDS011;46103;52.076;113.488;2023-08-01T08:57:18;16.20;;;12.00;;
60241;SDS011;46103;52.076;113.488;2023-08-01T09:00:24;12.98;;;10.82;;
60241;SDS011;46103;52.076;113.488;2023-08-01T09:03:32;18.05;;;12.45;;
60241;SDS011;46103;52.076;113.488;2023-08-01T09:06:40;12.75;;;11.48;;
60241;SDS011;46103;52.076;113.488;2023-08-01T09:09:52;14.90;;;11.57;;
60241;SDS011;46103;52.076;113.488;2023-08-01T09:12:58;15.98;;;12.63;;
60241;SDS011;46103;52.076;113.488;2023-08-01T09:16:03;16.48;;;12.02;;
60241;SDS011;46103;52.076;113.488;2023-08-01T09:19:15;14.95;;;12.27;;
60241;SDS011;46103;52.076;113.488;2023-08-01T09:22:24;13.82;;;12.43;;
60241;SDS011;46103;52.076;113.488;2023-08-01T09:25:30;16.13;;;13.07;;
60241;SDS011;46103;52.076;113.488;2023-08-01T09:28:36;16.13;;;13.48;;
60241;SDS011;46103;52.076;113.488;2023-08-01T09:31:41;14.20;;;12.77;;
60241;SDS011;46103;52.076;113.488;2023-08-01T09:34:47;13.50;;;12.27;;
60241;SDS011;46103;52.076;113.488;2023-08-01T09:38:02;14.65;;;13.10;;
60241;SDS011;46103;52.076;113.488;2023-08-01T09:41:16;15.27;;;13.73;;
60241;SDS011;46103;52.076;113.488;2023-08-01T09:44:26;14.00;;;12.60;;
60241;SDS011;46103;52.076;113.488;2023-08-01T09:47:38;14.55;;;12.77;;
60241;SDS011;46103;52.076;113.488;2023-08-01T09:50:43;13.48;;;12.07;;
60241;SDS011;46103;52.076;113.488;2023-08-01T09:53:53;14.90;;;12.95;;
60241;SDS011;46103;52.076;113.488;2023-08-01T09:57:01;15.27;;;13.70;;
60241;SDS011;46103;52.076;113.488;2023-08-01T10:00:09;17.15;;;15.38;;
60241;SDS011;46103;52.076;113.488;2023-08-01T10:03:16;18.63;;;16.73;;
60241;SDS011;46103;52.076;113.488;2023-08-01T10:06:24;18.23;;;16.58;;
60241;SDS011;46103;52.076;113.488;2023-08-01T10:09:34;17.48;;;15.88;;
60241;SDS011;46103;52.076;113.488;2023-08-01T10:12:39;20.92;;;19.17;;
60241;SDS011;46103;52.076;113.488;2023-08-01T10:15:49;17.75;;;16.02;;
60241;SDS011;46103;52.076;113.488;2023-08-01T10:18:55;18.23;;;16.50;;
60241;SDS011;46103;52.076;113.488;2023-08-01T10:22:04;18.10;;;16.70;;
60241;SDS011;46103;52.076;113.488;2023-08-01T10:25:10;19.10;;;17.42;;
60241;SDS011;46103;52.076;113.488;2023-08-01T10:28:16;19.05;;;17.40;;
60241;SDS011;46103;52.076;113.488;2023-08-01T10:31:22;24.67;;;22.42;;
60241;SDS011;46103;52.076;113.488;2023-08-01T10:34:28;16.75;;;15.30;;
60241;SDS011;46103;52.076;113.488;2023-08-01T10:37:40;15.52;;;14.02;;
60241;SDS011;46103;52.076;113.488;2023-08-01T10:40:48;15.43;;;14.13;;
60241;SDS011;46103;52.076;113.488;2023-08-01T10:44:03;15.43;;;14.02;;
60241;SDS011;46103;52.076;113.488;2023-08-01T10:47:09;13.23;;;11.93;;
60241;SDS011;46103;52.076;113.488;2023-08-01T10:50:13;16.05;;;14.75;;
60241;SDS011;46103;52.076;113.488;2023-08-01T10:53:19;15.85;;;14.35;;
60241;SDS011;46103;52.076;113.488;2023-08-01T10:56:23;16.20;;;14.80;;
60241;SDS011;46103;52.076;113.488;2023-08-01T10:59:27;15.00;;;13.50;;
60241;SDS011;46103;52.076;113.488;2023-08-01T11:02:31;19.25;;;17.55;;
60241;SDS011;46103;52.076;113.488;2023-08-01T11:05:35;14.27;;;12.70;;
60241;SDS011;46103;52.076;113.488;2023-08-01T11:08:38;15.93;;;14.23;;
60241;SDS011;46103;52.076;113.488;2023-08-01T11:11:45;15.70;;;13.50;;
60241;SDS011;46103;52.076;113.488;2023-08-01T11:14:52;15.50;;;13.77;;
60241;SDS011;46103;52.076;113.488;2023-08-01T11:17:55;14.77;;;12.85;;
60241;SDS011;46103;52.076;113.488;2023-08-01T11:21:23;14.98;;;12.93;;
60241;SDS011;46103;52.076;113.488;2023-08-01T11:24:30;18.67;;;14.40;;
60241;SDS011;46103;52.076;113.488;2023-08-01T11:27:34;21.15;;;17.02;;
60241;SDS011;46103;52.076;113.488;2023-08-01T11:30:38;25.02;;;20.75;;
60241;SDS011;46103;52.076;113.488;2023-08-01T11:33:42;16.02;;;14.43;;
60241;SDS011;46103;52.076;113.488;2023-08-01T11:36:58;18.50;;;15.73;;
60241;SDS011;46103;52.076;113.488;2023-08-01T11:40:02;20.33;;;15.60;;
60241;SDS011;46103;52.076;113.488;2023-08-01T11:43:07;20.40;;;15.60;;
60241;SDS011;46103;52.076;113.488;2023-08-01T11:46:12;20.70;;;13.82;;
60241;SDS011;46103;52.076;113.488;2023-08-01T11:49:16;17.38;;;14.82;;
60241;SDS011;46103;52.076;113.488;2023-08-01T11:52:24;19.15;;;15.65;;
60241;SDS011;46103;52.076;113.488;2023-08-01T11:55:29;21.40;;;15.27;;
60241;SDS011;46103;52.076;113.488;2023-08-01T11:58:42;17.33;;;14.15;;
60241;SDS011;46103;52.076;113.488;2023-08-01T12:01:46;19.45;;;13.63;;
60241;SDS011;46103;52.076;113.488;2023-08-01T12:05:05;17.92;;;14.30;;
60241;SDS011;46103;52.076;113.488;2023-08-01T12:08:10;18.83;;;14.20;;
60241;SDS011;46103;52.076;113.488;2023-08-01T12:14:26;17.67;;;13.63;;
60241;SDS011;46103;52.076;113.488;2023-08-01T12:17:35;21.35;;;15.10;;
60241;SDS011;46103;52.076;113.488;2023-08-01T12:20:39;21.77;;;18.58;;
60241;SDS011;46103;52.076;113.488;2023-08-01T12:23:43;19.23;;;14.80;;
60241;SDS011;46103;52.076;113.488;2023-08-01T12:26:46;21.73;;;18.10;;
60241;SDS011;46103;52.076;113.488;2023-08-01T12:29:50;23.33;;;15.95;;
60241;SDS011;46103;52.076;113.488;2023-08-01T12:32:54;23.10;;;16.55;;
60241;SDS011;46103;52.076;113.488;2023-08-01T12:36:01;24.85;;;16.45;;
60241;SDS011;46103;52.076;113.488;2023-08-01T12:39:06;18.42;;;13.48;;
60241;SDS011;46103;52.076;113.488;2023-08-01T12:42:13;17.17;;;14.77;;
60241;SDS011;46103;52.076;113.488;2023-08-01T12:45:18;16.52;;;14.43;;
60241;SDS011;46103;52.076;113.488;2023-08-01T12:48:21;19.65;;;13.98;;
60241;SDS011;46103;52.076;113.488;2023-08-01T12:51:40;17.35;;;14.65;;
60241;SDS011;46103;52.076;113.488;2023-08-01T12:54:43;16.13;;;14.43;;
60241;SDS011;46103;52.076;113.488;2023-08-01T12:57:49;19.35;;;14.77;;
60241;SDS011;46103;52.076;113.488;2023-08-01T13:00:55;19.30;;;14.55;;
60241;SDS011;46103;52.076;113.488;2023-08-01T13:04:10;18.35;;;14.32;;
60241;SDS011;46103;52.076;113.488;2023-08-01T13:07:53;17.75;;;14.35;;
60241;SDS011;46103;52.076;113.488;2023-08-01T13:12:37;22.92;;;17.00;;
60241;SDS011;46103;52.076;113.488;2023-08-01T13:19:54;21.10;;;18.00;;
60241;SDS011;46103;52.076;113.488;2023-08-01T13:23:01;18.02;;;16.17;;
60241;SDS011;46103;52.076;113.488;2023-08-01T13:26:39;19.67;;;15.82;;
60241;SDS011;46103;52.076;113.488;2023-08-01T13:29:46;18.83;;;15.20;;
60241;SDS011;46103;52.076;113.488;2023-08-01T13:33:59;20.02;;;16.73;;
60241;SDS011;46103;52.076;113.488;2023-08-01T13:37:04;16.67;;;14.40;;
60241;SDS011;46103;52.076;113.488;2023-08-01T13:40:28;17.63;;;14.73;;
60241;SDS011;46103;52.076;113.488;2023-08-01T13:43:35;19.55;;;13.93;;
60241;SDS011;46103;52.076;113.488;2023-08-01T13:47:53;16.20;;;13.52;;
60241;SDS011;46103;52.076;113.488;2023-08-01T13:50:57;17.25;;;15.30;;
60241;SDS011;46103;52.076;113.488;2023-08-01T13:54:16;20.10;;;15.65;;
60241;SDS011;46103;52.076;113.488;2023-08-01T13:57:21;18.02;;;14.90;;
60241;SDS011;46103;52.076;113.488;2023-08-01T14:00:26;19.20;;;16.35;;
60241;SDS011;46103;52.076;113.488;2023-08-01T14:03:32;18.17;;;15.57;;
60241;SDS011;46103;52.076;113.488;2023-08-01T14:06:41;16.38;;;14.55;;
60241;SDS011;46103;52.076;113.488;2023-08-01T14:09:59;19.55;;;17.45;;
60241;SDS011;46103;52.076;113.488;2023-08-01T14:13:40;25.83;;;19.05;;
60241;SDS011;46103;52.076;113.488;2023-08-01T14:16:44;21.92;;;16.52;;
60241;SDS011;46103;52.076;113.488;2023-08-01T14:19:48;19.98;;;17.25;;
60241;SDS011;46103;52.076;113.488;2023-08-01T14:23:08;14.27;;;11.50;;
60241;SDS011;46103;52.076;113.488;2023-08-01T14:26:12;15.95;;;12.80;;
60241;SDS011;46103;52.076;113.488;2023-08-01T14:29:41;24.50;;;18.15;;
60241;SDS011;46103;52.076;113.488;2023-08-01T14:32:59;24.73;;;18.15;;
60241;SDS011;46103;52.076;113.488;2023-08-01T14:36:08;23.52;;;18.90;;
60241;SDS011;46103;52.076;113.488;2023-08-01T14:39:15;21.98;;;18.13;;
60241;SDS011;46103;52.076;113.488;2023-08-01T14:42:24;24.30;;;19.35;;
60241;SDS011;46103;52.076;113.488;2023-08-01T14:45:28;23.38;;;17.33;;
60241;SDS011;46103;52.076;113.488;2023-08-01T14:48:32;22.40;;;16.95;;
60241;SDS011;46103;52.076;113.488;2023-08-01T14:51:40;21.73;;;16.13;;
60241;SDS011;46103;52.076;113.488;2023-08-01T14:54:49;20.35;;;15.73;;
60241;SDS011;46103;52.076;113.488;2023-08-01T14:57:56;20.02;;;15.88;;
60241;SDS011;46103;52.076;113.488;2023-08-01T15:01:02;19.65;;;14.95;;
60241;SDS011;46103;52.076;113.488;2023-08-01T15:04:10;21.33;;;15.10;;
60241;SDS011;46103;52.076;113.488;2023-08-01T15:07:17;24.85;;;16.25;;
60241;SDS011;46103;52.076;113.488;2023-08-01T15:10:24;21.63;;;16.52;;
60241;SDS011;46103;52.076;113.488;2023-08-01T15:13:30;20.35;;;15.50;;
60241;SDS011;46103;52.076;113.488;2023-08-01T15:16:36;18.42;;;14.82;;
60241;SDS011;46103;52.076;113.488;2023-08-01T15:19:45;19.13;;;15.00;;
60241;SDS011;46103;52.076;113.488;2023-08-01T15:22:51;20.90;;;14.52;;
60241;SDS011;46103;52.076;113.488;2023-08-01T15:25:57;21.35;;;15.00;;
60241;SDS011;46103;52.076;113.488;2023-08-01T15:29:03;19.27;;;15.50;;
60241;SDS011;46103;52.076;113.488;2023-08-01T15:32:10;23.27;;;18.77;;
60241;SDS011;46103;52.076;113.488;2023-08-01T15:35:14;18.27;;;14.00;;
60241;SDS011;46103;52.076;113.488;2023-08-01T15:38:17;17.13;;;14.23;;
60241;SDS011;46103;52.076;113.488;2023-08-01T15:41:21;16.20;;;13.45;;
60241;SDS011;46103;52.076;113.488;2023-08-01T15:44:25;17.33;;;14.20;;
60241;SDS011;46103;52.076;113.488;2023-08-01T15:47:33;16.52;;;14.27;;
60241;SDS011;46103;52.076;113.488;2023-08-01T15:50:37;14.93;;;13.13;;
60241;SDS011;46103;52.076;113.488;2023-08-01T15:53:42;15.65;;;13.88;;
60241;SDS011;46103;52.076;113.488;2023-08-01T15:56:45;18.50;;;13.63;;
60241;SDS011;46103;52.076;113.488;2023-08-01T15:59:49;14.88;;;13.27;;
60241;SDS011;46103;52.076;113.488;2023-08-01T16:02:53;15.57;;;13.32;;
60241;SDS011;46103;52.076;113.488;2023-08-01T16:05:57;17.63;;;14.57;;
60241;SDS011;46103;52.076;113.488;2023-08-01T16:09:00;14.23;;;12.45;;
60241;SDS011;46103;52.076;113.488;2023-08-01T16:12:05;14.85;;;11.80;;
60241;SDS011;46103;52.076;113.488;2023-08-01T16:15:09;14.82;;;12.65;;
60241;SDS011;46103;52.076;113.488;2023-08-01T16:18:13;13.02;;;11.73;;
60241;SDS011;46103;52.076;113.488;2023-08-01T16:21:16;15.63;;;11.93;;
60241;SDS011;46103;52.076;113.488;2023-08-01T16:24:20;16.20;;;14.38;;
60241;SDS011;46103;52.076;113.488;2023-08-01T16:27:23;14.40;;;12.32;;
60241;SDS011;46103;52.076;113.488;2023-08-01T16:30:28;12.55;;;10.73;;
60241;SDS011;46103;52.076;113.488;2023-08-01T16:33:32;15.07;;;11.45;;
60241;SDS011;46103;52.076;113.488;2023-08-01T16:36:37;16.73;;;11.90;;
60241;SDS011;46103;52.076;113.488;2023-08-01T16:39:41;18.17;;;13.18;;
60241;SDS011;46103;52.076;113.488;2023-08-01T16:42:45;20.20;;;14.68;;
60241;SDS011;46103;52.076;113.488;2023-08-01T16:45:49;17.23;;;14.38;;
60241;SDS011;46103;52.076;113.488;2023-08-01T16:48:53;16.88;;;13.85;;
60241;SDS011;46103;52.076;113.488;2023-08-01T16:51:59;16.25;;;13.00;;
60241;SDS011;46103;52.076;113.488;2023-08-01T16:55:03;16.73;;;13.82;;
60241;SDS011;46103;52.076;113.488;2023-08-01T16:58:06;19.30;;;13.30;;
60241;SDS011;46103;52.076;113.488;2023-08-01T17:01:10;14.98;;;12.73;;
60241;SDS011;46103;52.076;113.488;2023-08-01T17:04:14;17.63;;;13.93;;
60241;SDS011;46103;52.076;113.488;2023-08-01T17:07:18;17.92;;;12.38;;
60241;SDS011;46103;52.076;113.488;2023-08-01T17:10:21;17.35;;;12.18;;
60241;SDS011;46103;52.076;113.488;2023-08-01T17:13:25;16.52;;;12.68;;
60241;SDS011;46103;52.076;113.488;2023-08-01T17:16:31;16.55;;;12.85;;
60241;SDS011;46103;52.076;113.488;2023-08-01T17:19:35;17.55;;;13.40;;
60241;SDS011;46103;52.076;113.488;2023-08-01T17:22:39;15.13;;;12.68;;
60241;SDS011;46103;52.076;113.488;2023-08-01T17:25:43;17.08;;;13.35;;
60241;SDS011;46103;52.076;113.488;2023-08-01T17:28:47;16.58;;;13.45;;
60241;SDS011;46103;52.076;113.488;2023-08-01T17:31:51;17.17;;;12.18;;
60241;SDS011;46103;52.076;113.488;2023-08-01T17:34:55;14.23;;;11.90;;
60241;SDS011;46103;52.076;113.488;2023-08-01T17:38:00;17.13;;;12.15;;
60241;SDS011;46103;52.076;113.488;2023-08-01T17:44:23;14.27;;;12.32;;
60241;SDS011;46103;52.076;113.488;2023-08-01T17:47:36;15.25;;;12.57;;
60241;SDS011;46103;52.076;113.488;2023-08-01T17:50:43;15.15;;;13.18;;
60241;SDS011;46103;52.076;113.488;2023-08-01T17:53:47;15.38;;;11.68;;
60241;SDS011;46103;52.076;113.488;2023-08-01T17:56:51;14.55;;;12.05;;
60241;SDS011;46103;52.076;113.488;2023-08-01T17:59:57;14.23;;;11.57;;